sensor_id;sensor_type;location;lat;lon;timestamp;P1;durP1;ratioP1;P2;durP2;ratioP2
15633;SDS011;14654;48.898;8.308;2023-04-30T00:01:38;9.13;;;8.43;;
15633;SDS011;14654;48.898;8.308;2023-04-30T00:04:03;7.80;;;7.20;;
15633;SDS011;14654;48.898;8.308;2023-04-30T00:06:29;7.53;;;7.03;;
15633;SDS011;14654;48.898;8.308;2023-04-30T00:08:55;7.20;;;6.60;;
15633;SDS011;14654;48.898;8.308;2023-04-30T00:11:20;6.97;;;6.47;;
15633;SDS011;14654;48.898;8.308;2023-04-30T00:13:45;6.93;;;6.40;;
15633;SDS011;14654;48.898;8.308;2023-04-30T00:16:11;6.10;;;5.70;;
15633;SDS011;14654;48.898;8.308;2023-04-30T00:18:37;6.60;;;5.90;;
15633;SDS011;14654;48.898;8.308;2023-04-30T00:21:02;5.83;;;5.33;;
15633;SDS011;14654;48.898;8.308;2023-04-30T00:23:28;6.93;;;6.23;;
15633;SDS011;14654;48.898;8.308;2023-04-30T00:25:53;5.77;;;5.37;;
15633;SDS011;14654;48.898;8.308;2023-04-30T00:28:18;5.97;;;5.40;;
15633;SDS011;14654;48.898;8.308;2023-04-30T00:30:44;5.60;;;5.20;;
15633;SDS011;14654;48.898;8.308;2023-04-30T00:33:09;5.47;;;5.07;;
15633;SDS011;14654;48.898;8.308;2023-04-30T00:35:35;5.77;;;5.27;;
15633;SDS011;14654;48.898;8.308;2023-04-30T00:38:00;5.90;;;5.50;;
15633;SDS011;14654;48.898;8.308;2023-04-30T00:40:26;6.37;;;5.87;;
15633;SDS011;14654;48.898;8.308;2023-04-30T00:42:51;5.40;;;5.00;;
15633;SDS011;14654;48.898;8.308;2023-04-30T00:45:19;5.43;;;5.03;;
15633;SDS011;14654;48.898;8.308;2023-04-30T00:47:46;5.60;;;5.20;;
15633;SDS011;14654;48.898;8.308;2023-04-30T00:50:12;5.63;;;5.23;;
15633;SDS011;14654;48.898;8.308;2023-04-30T00:52:40;5.70;;;5.30;;
15633;SDS011;14654;48.898;8.308;2023-04-30T00:55:06;7.33;;;5.77;;
15633;SDS011;14654;48.898;8.308;2023-04-30T00:57:32;5.90;;;5.40;;
15633;SDS011;14654;48.898;8.308;2023-04-30T01:00:00;5.73;;;5.23;;
15633;SDS011;14654;48.898;8.308;2023-04-30T01:02:26;5.93;;;5.43;;
15633;SDS011;14654;48.898;8.308;2023-04-30T01:04:51;5.80;;;5.40;;
15633;SDS011;14654;48.898;8.308;2023-04-30T01:07:16;5.97;;;5.47;;
15633;SDS011;14654;48.898;8.308;2023-04-30T01:09:42;5.53;;;5.13;;
15633;SDS011;14654;48.898;8.308;2023-04-30T01:12:32;6.30;;;5.80;;
15633;SDS011;14654;48.898;8.308;2023-04-30T01:17:58;6.40;;;5.90;;
15633;SDS011;14654;48.898;8.308;2023-04-30T01:20:29;6.40;;;5.90;;
15633;SDS011;14654;48.898;8.308;2023-04-30T01:23:15;6.40;;;5.90;;
15633;SDS011;14654;48.898;8.308;2023-04-30T01:28:31;6.20;;;5.70;;
15633;SDS011;14654;48.898;8.308;2023-04-30T01:31:00;6.63;;;6.03;;
15633;SDS011;14654;48.898;8.308;2023-04-30T01:33:25;6.63;;;6.03;;
15633;SDS011;14654;48.898;8.308;2023-04-30T01:35:57;5.97;;;5.47;;
15633;SDS011;14654;48.898;8.308;2023-04-30T01:41:36;6.63;;;6.03;;
15633;SDS011;14654;48.898;8.308;2023-04-30T01:46:53;6.50;;;5.90;;
15633;SDS011;14654;48.898;8.308;2023-04-30T01:51:59;7.17;;;6.57;;
15633;SDS011;14654;48.898;8.308;2023-04-30T01:54:34;6.97;;;6.37;;
15633;SDS011;14654;48.898;8.308;2023-04-30T01:57:51;6.77;;;6.20;;
15633;SDS011;14654;48.898;8.308;2023-04-30T02:00:01;7.07;;;6.57;;
15633;SDS011;14654;48.898;8.308;2023-04-30T02:02:28;6.90;;;6.20;;
15633;SDS011;14654;48.898;8.308;2023-04-30T02:04:53;7.13;;;6.63;;
15633;SDS011;14654;48.898;8.308;2023-04-30T02:07:27;7.20;;;6.63;;
15633;SDS011;14654;48.898;8.308;2023-04-30T02:10:04;7.63;;;6.93;;
15633;SDS011;14654;48.898;8.308;2023-04-30T02:12:30;7.00;;;6.40;;
15633;SDS011;14654;48.898;8.308;2023-04-30T02:14:55;7.17;;;6.57;;
15633;SDS011;14654;48.898;8.308;2023-04-30T02:17:21;6.77;;;6.20;;
15633;SDS011;14654;48.898;8.308;2023-04-30T02:19:46;7.63;;;6.60;;
15633;SDS011;14654;48.898;8.308;2023-04-30T02:22:11;7.17;;;6.07;;
15633;SDS011;14654;48.898;8.308;2023-04-30T02:24:36;7.37;;;6.57;;
15633;SDS011;14654;48.898;8.308;2023-04-30T02:27:02;6.90;;;6.37;;
15633;SDS011;14654;48.898;8.308;2023-04-30T02:29:27;6.97;;;6.37;;
15633;SDS011;14654;48.898;8.308;2023-04-30T02:31:53;7.00;;;6.40;;
15633;SDS011;14654;48.898;8.308;2023-04-30T02:34:18;7.10;;;6.60;;
15633;SDS011;14654;48.898;8.308;2023-04-30T02:36:43;6.93;;;6.23;;
15633;SDS011;14654;48.898;8.308;2023-04-30T02:39:09;6.57;;;6.07;;
15633;SDS011;14654;48.898;8.308;2023-04-30T02:41:34;7.13;;;6.27;;
15633;SDS011;14654;48.898;8.308;2023-04-30T02:44:00;7.47;;;6.77;;
15633;SDS011;14654;48.898;8.308;2023-04-30T02:46:25;6.60;;;6.00;;
15633;SDS011;14654;48.898;8.308;2023-04-30T02:48:51;6.90;;;6.40;;
15633;SDS011;14654;48.898;8.308;2023-04-30T02:51:16;7.40;;;6.80;;
15633;SDS011;14654;48.898;8.308;2023-04-30T02:53:41;6.83;;;6.20;;
15633;SDS011;14654;48.898;8.308;2023-04-30T02:56:06;6.73;;;6.23;;
15633;SDS011;14654;48.898;8.308;2023-04-30T02:58:32;6.63;;;6.03;;
15633;SDS011;14654;48.898;8.308;2023-04-30T03:00:57;7.47;;;6.83;;
15633;SDS011;14654;48.898;8.308;2023-04-30T03:03:23;8.20;;;7.57;;
15633;SDS011;14654;48.898;8.308;2023-04-30T03:05:48;7.47;;;6.87;;
15633;SDS011;14654;48.898;8.308;2023-04-30T03:08:14;7.73;;;7.13;;
15633;SDS011;14654;48.898;8.308;2023-04-30T03:10:39;7.57;;;6.97;;
15633;SDS011;14654;48.898;8.308;2023-04-30T03:13:04;7.90;;;7.10;;
15633;SDS011;14654;48.898;8.308;2023-04-30T03:15:31;7.97;;;7.37;;
15633;SDS011;14654;48.898;8.308;2023-04-30T03:17:57;7.63;;;7.03;;
15633;SDS011;14654;48.898;8.308;2023-04-30T03:20:22;7.90;;;7.20;;
15633;SDS011;14654;48.898;8.308;2023-04-30T03:22:47;7.57;;;6.97;;
15633;SDS011;14654;48.898;8.308;2023-04-30T03:25:13;7.97;;;7.27;;
15633;SDS011;14654;48.898;8.308;2023-04-30T03:27:38;8.17;;;7.50;;
15633;SDS011;14654;48.898;8.308;2023-04-30T03:30:04;7.93;;;7.23;;
15633;SDS011;14654;48.898;8.308;2023-04-30T03:32:30;8.40;;;7.60;;
15633;SDS011;14654;48.898;8.308;2023-04-30T03:34:56;8.03;;;7.40;;
15633;SDS011;14654;48.898;8.308;2023-04-30T03:37:21;8.37;;;7.67;;
15633;SDS011;14654;48.898;8.308;2023-04-30T03:39:46;8.47;;;7.77;;
15633;SDS011;14654;48.898;8.308;2023-04-30T03:42:12;8.97;;;8.27;;
15633;SDS011;14654;48.898;8.308;2023-04-30T03:44:37;9.10;;;8.23;;
15633;SDS011;14654;48.898;8.308;2023-04-30T03:47:03;8.80;;;8.10;;
15633;SDS011;14654;48.898;8.308;2023-04-30T03:49:28;8.90;;;8.10;;
15633;SDS011;14654;48.898;8.308;2023-04-30T03:51:54;9.40;;;8.53;;
15633;SDS011;14654;48.898;8.308;2023-04-30T03:54:19;8.47;;;7.83;;
15633;SDS011;14654;48.898;8.308;2023-04-30T03:56:45;9.07;;;8.37;;
15633;SDS011;14654;48.898;8.308;2023-04-30T03:59:10;8.47;;;7.87;;
15633;SDS011;14654;48.898;8.308;2023-04-30T04:01:36;9.30;;;8.53;;
15633;SDS011;14654;48.898;8.308;2023-04-30T04:04:01;9.27;;;8.47;;
15633;SDS011;14654;48.898;8.308;2023-04-30T04:06:26;9.23;;;8.53;;
15633;SDS011;14654;48.898;8.308;2023-04-30T04:08:52;9.67;;;8.83;;
15633;SDS011;14654;48.898;8.308;2023-04-30T04:11:17;9.37;;;8.67;;
15633;SDS011;14654;48.898;8.308;2023-04-30T04:13:42;8.93;;;8.23;;
15633;SDS011;14654;48.898;8.308;2023-04-30T04:16:07;9.20;;;8.40;;
15633;SDS011;14654;48.898;8.308;2023-04-30T04:18:33;9.63;;;8.77;;
15633;SDS011;14654;48.898;8.308;2023-04-30T04:20:59;9.13;;;8.40;;
15633;SDS011;14654;48.898;8.308;2023-04-30T04:23:25;9.10;;;8.20;;
15633;SDS011;14654;48.898;8.308;2023-04-30T04:25:51;10.00;;;9.10;;
15633;SDS011;14654;48.898;8.308;2023-04-30T04:28:17;9.20;;;8.40;;
15633;SDS011;14654;48.898;8.308;2023-04-30T04:30:42;9.70;;;8.90;;
15633;SDS011;14654;48.898;8.308;2023-04-30T04:33:08;9.13;;;8.37;;
15633;SDS011;14654;48.898;8.308;2023-04-30T04:35:34;9.73;;;8.73;;
15633;SDS011;14654;48.898;8.308;2023-04-30T04:37:59;9.57;;;8.73;;
15633;SDS011;14654;48.898;8.308;2023-04-30T04:40:25;10.37;;;8.70;;
15633;SDS011;14654;48.898;8.308;2023-04-30T04:42:50;8.73;;;7.83;;
15633;SDS011;14654;48.898;8.308;2023-04-30T04:45:16;9.17;;;8.47;;
15633;SDS011;14654;48.898;8.308;2023-04-30T04:47:41;8.80;;;8.10;;
15633;SDS011;14654;48.898;8.308;2023-04-30T04:50:07;9.60;;;8.70;;
15633;SDS011;14654;48.898;8.308;2023-04-30T04:52:32;8.97;;;8.27;;
15633;SDS011;14654;48.898;8.308;2023-04-30T04:54:58;8.83;;;8.13;;
15633;SDS011;14654;48.898;8.308;2023-04-30T04:57:23;8.83;;;8.13;;
15633;SDS011;14654;48.898;8.308;2023-04-30T04:59:48;9.43;;;8.63;;
15633;SDS011;14654;48.898;8.308;2023-04-30T05:02:14;8.97;;;8.27;;
15633;SDS011;14654;48.898;8.308;2023-04-30T05:04:39;9.00;;;8.20;;
15633;SDS011;14654;48.898;8.308;2023-04-30T05:07:05;9.50;;;8.70;;
15633;SDS011;14654;48.898;8.308;2023-04-30T05:09:32;8.27;;;7.60;;
15633;SDS011;14654;48.898;8.308;2023-04-30T05:11:57;8.37;;;7.70;;
15633;SDS011;14654;48.898;8.308;2023-04-30T05:14:22;9.20;;;8.50;;
15633;SDS011;14654;48.898;8.308;2023-04-30T05:16:48;8.90;;;8.20;;
15633;SDS011;14654;48.898;8.308;2023-04-30T05:19:13;8.83;;;8.13;;
15633;SDS011;14654;48.898;8.308;2023-04-30T05:21:39;8.23;;;7.53;;
15633;SDS011;14654;48.898;8.308;2023-04-30T05:24:04;8.57;;;7.87;;
15633;SDS011;14654;48.898;8.308;2023-04-30T05:26:29;8.10;;;7.40;;
15633;SDS011;14654;48.898;8.308;2023-04-30T05:28:55;7.80;;;7.10;;
15633;SDS011;14654;48.898;8.308;2023-04-30T05:31:20;8.43;;;7.70;;
15633;SDS011;14654;48.898;8.308;2023-04-30T05:33:46;7.63;;;6.93;;
15633;SDS011;14654;48.898;8.308;2023-04-30T05:36:11;7.37;;;6.77;;
15633;SDS011;14654;48.898;8.308;2023-04-30T05:38:37;7.50;;;6.90;;
15633;SDS011;14654;48.898;8.308;2023-04-30T05:41:02;6.97;;;6.27;;
15633;SDS011;14654;48.898;8.308;2023-04-30T05:43:28;7.63;;;6.93;;
15633;SDS011;14654;48.898;8.308;2023-04-30T05:45:53;7.30;;;6.70;;
15633;SDS011;14654;48.898;8.308;2023-04-30T05:48:18;7.10;;;6.53;;
15633;SDS011;14654;48.898;8.308;2023-04-30T05:50:44;6.43;;;5.93;;
15633;SDS011;14654;48.898;8.308;2023-04-30T05:53:09;6.50;;;6.00;;
15633;SDS011;14654;48.898;8.308;2023-04-30T05:55:35;6.70;;;6.20;;
15633;SDS011;14654;48.898;8.308;2023-04-30T05:58:00;6.37;;;5.77;;
15633;SDS011;14654;48.898;8.308;2023-04-30T06:00:25;6.37;;;5.80;;
15633;SDS011;14654;48.898;8.308;2023-04-30T06:02:51;6.27;;;5.77;;
15633;SDS011;14654;48.898;8.308;2023-04-30T06:05:17;6.43;;;5.93;;
15633;SDS011;14654;48.898;8.308;2023-04-30T06:07:42;6.60;;;6.00;;
15633;SDS011;14654;48.898;8.308;2023-04-30T06:10:08;7.27;;;6.33;;
15633;SDS011;14654;48.898;8.308;2023-04-30T06:12:34;6.33;;;5.83;;
15633;SDS011;14654;48.898;8.308;2023-04-30T06:14:59;7.07;;;6.43;;
15633;SDS011;14654;48.898;8.308;2023-04-30T06:17:24;6.73;;;6.17;;
15633;SDS011;14654;48.898;8.308;2023-04-30T06:19:50;6.90;;;6.30;;
15633;SDS011;14654;48.898;8.308;2023-04-30T06:22:15;6.73;;;6.13;;
15633;SDS011;14654;48.898;8.308;2023-04-30T06:24:40;7.20;;;6.60;;
15633;SDS011;14654;48.898;8.308;2023-04-30T06:27:06;6.30;;;5.83;;
15633;SDS011;14654;48.898;8.308;2023-04-30T06:29:31;9.00;;;7.17;;
15633;SDS011;14654;48.898;8.308;2023-04-30T06:31:56;6.40;;;5.90;;
15633;SDS011;14654;48.898;8.308;2023-04-30T06:34:22;6.40;;;5.80;;
15633;SDS011;14654;48.898;8.308;2023-04-30T06:36:47;6.87;;;6.27;;
15633;SDS011;14654;48.898;8.308;2023-04-30T06:39:13;6.43;;;5.93;;
15633;SDS011;14654;48.898;8.308;2023-04-30T06:41:39;7.10;;;6.47;;
15633;SDS011;14654;48.898;8.308;2023-04-30T06:44:05;7.00;;;6.30;;
15633;SDS011;14654;48.898;8.308;2023-04-30T06:46:30;8.03;;;6.37;;
15633;SDS011;14654;48.898;8.308;2023-04-30T06:48:55;7.40;;;6.73;;
15633;SDS011;14654;48.898;8.308;2023-04-30T06:51:21;7.40;;;6.70;;
15633;SDS011;14654;48.898;8.308;2023-04-30T06:53:46;7.07;;;6.53;;
15633;SDS011;14654;48.898;8.308;2023-04-30T06:56:11;7.33;;;6.63;;
15633;SDS011;14654;48.898;8.308;2023-04-30T06:58:37;7.53;;;6.93;;
15633;SDS011;14654;48.898;8.308;2023-04-30T07:01:02;7.57;;;6.90;;
15633;SDS011;14654;48.898;8.308;2023-04-30T07:03:27;7.13;;;6.53;;
15633;SDS011;14654;48.898;8.308;2023-04-30T07:05:53;7.33;;;6.73;;
15633;SDS011;14654;48.898;8.308;2023-04-30T07:08:18;6.60;;;6.10;;
15633;SDS011;14654;48.898;8.308;2023-04-30T07:10:44;7.57;;;6.97;;
15633;SDS011;14654;48.898;8.308;2023-04-30T07:13:09;7.10;;;6.60;;
15633;SDS011;14654;48.898;8.308;2023-04-30T07:15:34;6.10;;;5.70;;
15633;SDS011;14654;48.898;8.308;2023-04-30T07:18:01;7.70;;;6.90;;
15633;SDS011;14654;48.898;8.308;2023-04-30T07:20:27;7.27;;;6.67;;
15633;SDS011;14654;48.898;8.308;2023-04-30T07:22:53;8.33;;;7.63;;
15633;SDS011;14654;48.898;8.308;2023-04-30T07:25:19;8.80;;;7.83;;
15633;SDS011;14654;48.898;8.308;2023-04-30T07:27:45;7.10;;;6.60;;
15633;SDS011;14654;48.898;8.308;2023-04-30T07:30:11;7.50;;;6.80;;
15633;SDS011;14654;48.898;8.308;2023-04-30T07:32:36;7.07;;;6.47;;
15633;SDS011;14654;48.898;8.308;2023-04-30T07:35:04;8.60;;;7.57;;
15633;SDS011;14654;48.898;8.308;2023-04-30T07:37:30;8.07;;;7.03;;
15633;SDS011;14654;48.898;8.308;2023-04-30T07:39:55;7.60;;;7.00;;
15633;SDS011;14654;48.898;8.308;2023-04-30T07:42:21;7.00;;;6.40;;
15633;SDS011;14654;48.898;8.308;2023-04-30T07:44:47;7.43;;;6.83;;
15633;SDS011;14654;48.898;8.308;2023-04-30T07:47:13;8.20;;;7.40;;
15633;SDS011;14654;48.898;8.308;2023-04-30T07:49:38;8.20;;;7.40;;
15633;SDS011;14654;48.898;8.308;2023-04-30T07:52:03;8.00;;;7.17;;
15633;SDS011;14654;48.898;8.308;2023-04-30T07:54:29;8.90;;;8.20;;
15633;SDS011;14654;48.898;8.308;2023-04-30T07:56:55;8.33;;;7.57;;
15633;SDS011;14654;48.898;8.308;2023-04-30T07:59:20;7.77;;;7.10;;
15633;SDS011;14654;48.898;8.308;2023-04-30T08:01:48;7.83;;;7.17;;
15633;SDS011;14654;48.898;8.308;2023-04-30T08:04:14;8.50;;;7.70;;
15633;SDS011;14654;48.898;8.308;2023-04-30T08:06:39;7.37;;;6.67;;
15633;SDS011;14654;48.898;8.308;2023-04-30T08:09:04;7.83;;;7.13;;
15633;SDS011;14654;48.898;8.308;2023-04-30T08:11:29;7.07;;;6.40;;
15633;SDS011;14654;48.898;8.308;2023-04-30T08:13:55;8.03;;;7.17;;
15633;SDS011;14654;48.898;8.308;2023-04-30T08:16:20;7.60;;;6.90;;
15633;SDS011;14654;48.898;8.308;2023-04-30T08:18:46;7.27;;;6.57;;
15633;SDS011;14654;48.898;8.308;2023-04-30T08:21:13;6.70;;;6.20;;
15633;SDS011;14654;48.898;8.308;2023-04-30T08:23:38;7.40;;;6.80;;
15633;SDS011;14654;48.898;8.308;2023-04-30T08:26:04;7.40;;;6.70;;
15633;SDS011;14654;48.898;8.308;2023-04-30T08:28:29;8.13;;;7.43;;
15633;SDS011;14654;48.898;8.308;2023-04-30T08:30:55;6.70;;;6.10;;
15633;SDS011;14654;48.898;8.308;2023-04-30T08:33:21;6.10;;;5.60;;
15633;SDS011;14654;48.898;8.308;2023-04-30T08:35:46;5.80;;;5.40;;
15633;SDS011;14654;48.898;8.308;2023-04-30T08:38:11;8.27;;;6.13;;
15633;SDS011;14654;48.898;8.308;2023-04-30T08:40:37;5.80;;;5.30;;
15633;SDS011;14654;48.898;8.308;2023-04-30T08:43:04;6.07;;;5.47;;
15633;SDS011;14654;48.898;8.308;2023-04-30T08:45:31;5.40;;;4.90;;
15633;SDS011;14654;48.898;8.308;2023-04-30T08:47:58;6.10;;;5.50;;
15633;SDS011;14654;48.898;8.308;2023-04-30T08:50:24;8.30;;;5.73;;
15633;SDS011;14654;48.898;8.308;2023-04-30T08:52:49;6.70;;;6.10;;
15633;SDS011;14654;48.898;8.308;2023-04-30T08:55:15;7.13;;;5.90;;
15633;SDS011;14654;48.898;8.308;2023-04-30T08:57:40;6.10;;;5.60;;
15633;SDS011;14654;48.898;8.308;2023-04-30T09:00:06;6.17;;;5.37;;
15633;SDS011;14654;48.898;8.308;2023-04-30T09:02:32;5.33;;;4.83;;
15633;SDS011;14654;48.898;8.308;2023-04-30T09:04:58;5.13;;;4.73;;
15633;SDS011;14654;48.898;8.308;2023-04-30T09:07:24;4.20;;;3.90;;
15633;SDS011;14654;48.898;8.308;2023-04-30T09:09:52;4.57;;;4.17;;
15633;SDS011;14654;48.898;8.308;2023-04-30T09:12:18;5.47;;;4.00;;
15633;SDS011;14654;48.898;8.308;2023-04-30T09:14:56;4.10;;;3.70;;
15633;SDS011;14654;48.898;8.308;2023-04-30T09:17:23;3.93;;;3.20;;
15633;SDS011;14654;48.898;8.308;2023-04-30T09:19:49;4.10;;;3.80;;
15633;SDS011;14654;48.898;8.308;2023-04-30T09:22:21;3.70;;;3.40;;
15633;SDS011;14654;48.898;8.308;2023-04-30T09:24:48;3.83;;;3.30;;
15633;SDS011;14654;48.898;8.308;2023-04-30T09:27:18;5.10;;;4.70;;
15633;SDS011;14654;48.898;8.308;2023-04-30T09:29:45;5.80;;;5.20;;
15633;SDS011;14654;48.898;8.308;2023-04-30T09:32:10;6.40;;;5.57;;
15633;SDS011;14654;48.898;8.308;2023-04-30T09:34:37;7.03;;;5.90;;
15633;SDS011;14654;48.898;8.308;2023-04-30T09:37:02;6.63;;;5.97;;
15633;SDS011;14654;48.898;8.308;2023-04-30T09:39:28;6.27;;;5.03;;
15633;SDS011;14654;48.898;8.308;2023-04-30T09:42:05;5.33;;;4.83;;
15633;SDS011;14654;48.898;8.308;2023-04-30T09:44:36;6.37;;;5.40;;
15633;SDS011;14654;48.898;8.308;2023-04-30T09:47:03;5.57;;;5.07;;
15633;SDS011;14654;48.898;8.308;2023-04-30T09:49:28;5.47;;;5.07;;
15633;SDS011;14654;48.898;8.308;2023-04-30T09:52:00;5.27;;;4.73;;
15633;SDS011;14654;48.898;8.308;2023-04-30T09:54:28;7.90;;;5.40;;
15633;SDS011;14654;48.898;8.308;2023-04-30T09:56:55;5.67;;;5.23;;
15633;SDS011;14654;48.898;8.308;2023-04-30T09:59:32;6.07;;;5.47;;
15633;SDS011;14654;48.898;8.308;2023-04-30T10:02:03;6.17;;;5.57;;
15633;SDS011;14654;48.898;8.308;2023-04-30T10:07:05;5.13;;;4.40;;
15633;SDS011;14654;48.898;8.308;2023-04-30T10:09:47;5.10;;;4.60;;
15633;SDS011;14654;48.898;8.308;2023-04-30T10:12:14;4.93;;;4.10;;
15633;SDS011;14654;48.898;8.308;2023-04-30T10:14:47;4.90;;;4.50;;
15633;SDS011;14654;48.898;8.308;2023-04-30T10:17:16;4.90;;;4.50;;
15633;SDS011;14654;48.898;8.308;2023-04-30T10:19:44;4.77;;;4.30;;
15633;SDS011;14654;48.898;8.308;2023-04-30T10:22:12;4.23;;;3.90;;
15633;SDS011;14654;48.898;8.308;2023-04-30T10:24:38;3.40;;;3.10;;
15633;SDS011;14654;48.898;8.308;2023-04-30T10:27:05;4.53;;;3.80;;
15633;SDS011;14654;48.898;8.308;2023-04-30T10:29:31;4.30;;;4.00;;
15633;SDS011;14654;48.898;8.308;2023-04-30T10:31:56;4.00;;;3.60;;
15633;SDS011;14654;48.898;8.308;2023-04-30T10:37:20;4.53;;;3.50;;
15633;SDS011;14654;48.898;8.308;2023-04-30T10:39:52;4.00;;;3.07;;
15633;SDS011;14654;48.898;8.308;2023-04-30T10:42:18;4.17;;;3.10;;
15633;SDS011;14654;48.898;8.308;2023-04-30T10:44:43;3.30;;;3.00;;
15633;SDS011;14654;48.898;8.308;2023-04-30T10:47:09;3.50;;;3.03;;
15633;SDS011;14654;48.898;8.308;2023-04-30T10:49:34;3.87;;;3.07;;
15633;SDS011;14654;48.898;8.308;2023-04-30T10:52:00;3.43;;;3.20;;
15633;SDS011;14654;48.898;8.308;2023-04-30T10:54:32;3.33;;;3.00;;
15633;SDS011;14654;48.898;8.308;2023-04-30T10:57:13;2.97;;;2.73;;
15633;SDS011;14654;48.898;8.308;2023-04-30T11:02:17;2.43;;;2.23;;
15633;SDS011;14654;48.898;8.308;2023-04-30T11:07:50;3.40;;;3.03;;
15633;SDS011;14654;48.898;8.308;2023-04-30T11:10:23;3.40;;;3.10;;
15633;SDS011;14654;48.898;8.308;2023-04-30T11:12:51;3.63;;;3.20;;
15633;SDS011;14654;48.898;8.308;2023-04-30T11:15:24;3.83;;;3.53;;
15633;SDS011;14654;48.898;8.308;2023-04-30T11:17:50;3.33;;;3.03;;
15633;SDS011;14654;48.898;8.308;2023-04-30T11:20:22;3.23;;;3.00;;
15633;SDS011;14654;48.898;8.308;2023-04-30T11:23:06;3.20;;;2.90;;
15633;SDS011;14654;48.898;8.308;2023-04-30T11:25:39;3.33;;;3.00;;
15633;SDS011;14654;48.898;8.308;2023-04-30T11:28:17;3.03;;;2.73;;
15633;SDS011;14654;48.898;8.308;2023-04-30T11:30:57;3.57;;;2.70;;
15633;SDS011;14654;48.898;8.308;2023-04-30T11:33:24;3.23;;;2.70;;
15633;SDS011;14654;48.898;8.308;2023-04-30T11:35:51;3.10;;;2.90;;
15633;SDS011;14654;48.898;8.308;2023-04-30T11:38:18;3.80;;;3.07;;
15633;SDS011;14654;48.898;8.308;2023-04-30T11:40:46;2.80;;;2.60;;
15633;SDS011;14654;48.898;8.308;2023-04-30T11:43:28;2.87;;;2.67;;
15633;SDS011;14654;48.898;8.308;2023-04-30T11:46:08;2.93;;;2.63;;
15633;SDS011;14654;48.898;8.308;2023-04-30T11:48:36;2.60;;;2.40;;
15633;SDS011;14654;48.898;8.308;2023-04-30T11:51:03;2.77;;;2.33;;
15633;SDS011;14654;48.898;8.308;2023-04-30T11:53:51;2.90;;;2.70;;
15633;SDS011;14654;48.898;8.308;2023-04-30T11:56:20;3.80;;;2.90;;
15633;SDS011;14654;48.898;8.308;2023-04-30T11:58:48;3.47;;;2.90;;
15633;SDS011;14654;48.898;8.308;2023-04-30T12:01:14;4.93;;;2.90;;
15633;SDS011;14654;48.898;8.308;2023-04-30T12:03:44;2.40;;;2.20;;
15633;SDS011;14654;48.898;8.308;2023-04-30T12:06:11;3.63;;;2.40;;
15633;SDS011;14654;48.898;8.308;2023-04-30T12:08:45;3.00;;;2.43;;
15633;SDS011;14654;48.898;8.308;2023-04-30T12:13:49;2.87;;;2.27;;
15633;SDS011;14654;48.898;8.308;2023-04-30T12:16:18;3.90;;;2.47;;
15633;SDS011;14654;48.898;8.308;2023-04-30T12:18:44;2.27;;;2.07;;
15633;SDS011;14654;48.898;8.308;2023-04-30T12:21:09;2.83;;;2.00;;
15633;SDS011;14654;48.898;8.308;2023-04-30T12:23:35;3.03;;;1.77;;
15633;SDS011;14654;48.898;8.308;2023-04-30T12:26:01;3.47;;;2.50;;
15633;SDS011;14654;48.898;8.308;2023-04-30T12:28:26;2.37;;;2.17;;
15633;SDS011;14654;48.898;8.308;2023-04-30T12:30:52;2.30;;;2.10;;
15633;SDS011;14654;48.898;8.308;2023-04-30T12:33:17;2.70;;;2.30;;
15633;SDS011;14654;48.898;8.308;2023-04-30T12:35:43;2.20;;;2.00;;
15633;SDS011;14654;48.898;8.308;2023-04-30T12:38:09;2.73;;;2.20;;
15633;SDS011;14654;48.898;8.308;2023-04-30T12:40:35;3.10;;;2.10;;
15633;SDS011;14654;48.898;8.308;2023-04-30T12:43:01;3.00;;;1.97;;
15633;SDS011;14654;48.898;8.308;2023-04-30T12:45:50;2.37;;;1.97;;
15633;SDS011;14654;48.898;8.308;2023-04-30T12:48:20;2.60;;;2.40;;
15633;SDS011;14654;48.898;8.308;2023-04-30T12:50:47;2.53;;;2.10;;
15633;SDS011;14654;48.898;8.308;2023-04-30T12:53:15;2.37;;;2.07;;
15633;SDS011;14654;48.898;8.308;2023-04-30T12:55:40;2.23;;;1.97;;
15633;SDS011;14654;48.898;8.308;2023-04-30T12:58:07;2.50;;;2.30;;
15633;SDS011;14654;48.898;8.308;2023-04-30T13:03:13;2.23;;;2.03;;
15633;SDS011;14654;48.898;8.308;2023-04-30T13:05:39;1.77;;;1.67;;
15633;SDS011;14654;48.898;8.308;2023-04-30T13:08:05;2.67;;;2.47;;
15633;SDS011;14654;48.898;8.308;2023-04-30T13:10:31;3.70;;;2.27;;
15633;SDS011;14654;48.898;8.308;2023-04-30T13:12:57;2.00;;;1.90;;
15633;SDS011;14654;48.898;8.308;2023-04-30T13:15:23;2.63;;;2.43;;
15633;SDS011;14654;48.898;8.308;2023-04-30T13:17:48;2.30;;;2.13;;
15633;SDS011;14654;48.898;8.308;2023-04-30T13:20:17;2.40;;;2.20;;
15633;SDS011;14654;48.898;8.308;2023-04-30T13:22:42;2.67;;;2.30;;
15633;SDS011;14654;48.898;8.308;2023-04-30T13:25:08;2.53;;;2.33;;
15633;SDS011;14654;48.898;8.308;2023-04-30T13:27:33;2.13;;;2.00;;
15633;SDS011;14654;48.898;8.308;2023-04-30T13:29:59;2.73;;;2.50;;
15633;SDS011;14654;48.898;8.308;2023-04-30T13:32:27;2.90;;;2.70;;
15633;SDS011;14654;48.898;8.308;2023-04-30T13:34:52;3.20;;;3.00;;
15633;SDS011;14654;48.898;8.308;2023-04-30T13:37:19;2.67;;;2.47;;
15633;SDS011;14654;48.898;8.308;2023-04-30T13:39:45;3.03;;;2.83;;
15633;SDS011;14654;48.898;8.308;2023-04-30T13:42:10;3.10;;;2.60;;
15633;SDS011;14654;48.898;8.308;2023-04-30T13:44:37;2.83;;;2.60;;
15633;SDS011;14654;48.898;8.308;2023-04-30T13:47:03;3.67;;;2.80;;
15633;SDS011;14654;48.898;8.308;2023-04-30T13:49:29;3.03;;;2.83;;
15633;SDS011;14654;48.898;8.308;2023-04-30T13:51:54;2.97;;;2.63;;
15633;SDS011;14654;48.898;8.308;2023-04-30T13:54:19;4.00;;;3.00;;
15633;SDS011;14654;48.898;8.308;2023-04-30T13:56:45;2.73;;;2.53;;
15633;SDS011;14654;48.898;8.308;2023-04-30T13:59:10;3.00;;;2.70;;
15633;SDS011;14654;48.898;8.308;2023-04-30T14:01:35;3.40;;;3.10;;
15633;SDS011;14654;48.898;8.308;2023-04-30T14:04:00;2.70;;;2.50;;
15633;SDS011;14654;48.898;8.308;2023-04-30T14:06:26;3.10;;;2.80;;
15633;SDS011;14654;48.898;8.308;2023-04-30T14:08:53;2.73;;;2.53;;
15633;SDS011;14654;48.898;8.308;2023-04-30T14:11:18;2.60;;;2.40;;
15633;SDS011;14654;48.898;8.308;2023-04-30T14:13:43;4.00;;;2.60;;
15633;SDS011;14654;48.898;8.308;2023-04-30T14:16:09;2.93;;;2.73;;
15633;SDS011;14654;48.898;8.308;2023-04-30T14:18:34;3.27;;;2.67;;
15633;SDS011;14654;48.898;8.308;2023-04-30T14:20:59;3.10;;;2.80;;
15633;SDS011;14654;48.898;8.308;2023-04-30T14:23:25;3.10;;;2.80;;
15633;SDS011;14654;48.898;8.308;2023-04-30T14:25:51;5.40;;;2.97;;
15633;SDS011;14654;48.898;8.308;2023-04-30T14:28:18;2.60;;;2.40;;
15633;SDS011;14654;48.898;8.308;2023-04-30T14:30:43;4.17;;;3.00;;
15633;SDS011;14654;48.898;8.308;2023-04-30T14:33:08;2.63;;;2.40;;
15633;SDS011;14654;48.898;8.308;2023-04-30T14:35:36;3.20;;;2.70;;
15633;SDS011;14654;48.898;8.308;2023-04-30T14:38:01;3.33;;;3.00;;
15633;SDS011;14654;48.898;8.308;2023-04-30T14:40:27;2.70;;;2.50;;
15633;SDS011;14654;48.898;8.308;2023-04-30T14:42:53;2.93;;;2.70;;
15633;SDS011;14654;48.898;8.308;2023-04-30T14:45:18;4.03;;;2.67;;
15633;SDS011;14654;48.898;8.308;2023-04-30T14:47:43;2.70;;;2.50;;
15633;SDS011;14654;48.898;8.308;2023-04-30T14:50:09;3.80;;;2.57;;
15633;SDS011;14654;48.898;8.308;2023-04-30T14:52:34;2.80;;;2.60;;
15633;SDS011;14654;48.898;8.308;2023-04-30T14:55:00;3.37;;;2.43;;
15633;SDS011;14654;48.898;8.308;2023-04-30T14:57:25;2.60;;;2.40;;
15633;SDS011;14654;48.898;8.308;2023-04-30T14:59:51;2.40;;;2.20;;
15633;SDS011;14654;48.898;8.308;2023-04-30T15:02:18;2.90;;;2.70;;
15633;SDS011;14654;48.898;8.308;2023-04-30T15:04:45;3.50;;;2.50;;
15633;SDS011;14654;48.898;8.308;2023-04-30T15:07:11;3.00;;;2.80;;
15633;SDS011;14654;48.898;8.308;2023-04-30T15:09:36;3.10;;;2.83;;
15633;SDS011;14654;48.898;8.308;2023-04-30T15:12:02;3.57;;;2.90;;
15633;SDS011;14654;48.898;8.308;2023-04-30T15:14:27;2.47;;;2.20;;
15633;SDS011;14654;48.898;8.308;2023-04-30T15:16:53;2.90;;;2.70;;